Time;durP1;ratioP1;P1;durP2;ratioP2;P2;SDS_P1;SDS_P2;PMS_P1;PMS_P2;Temp;Humidity;BMP_temperature;BMP_pressure;BME280_temperature;BME280_humidity;BME280_pressure;Samples;Min_cycle;Max_cycle;Signal;HPM_P1;HPM_P2
2022/07/08 00:01:57;;;;;;;7.75;3.70;;;18.40;99.90;;;;;;5096349;28;20023;-53
2022/07/08 00:04:23;;;;;;;10.80;3.65;;;18.30;99.90;;;;;;5114725;28;20099;-53
2022/07/08 00:06:49;;;;;;;5.82;3.95;;;18.20;99.90;;;;;;5096564;28;20115;-53
2022/07/08 00:09:15;;;;;;;7.45;3.47;;;18.10;99.90;;;;;;5094478;28;20028;-53
2022/07/08 00:11:41;;;;;;;5.63;3.70;;;18.10;99.90;;;;;;5094209;28;20032;-53
2022/07/08 00:14:09;;;;;;;6.20;4.00;;;18.00;99.90;;;;;;5094006;28;20428;-54
2022/07/08 00:16:40;;;;;;;4.57;3.97;;;18.00;99.90;;;;;;5094291;28;20032;-53
2022/07/08 00:19:07;;;;;;;10.02;4.28;;;17.90;99.90;;;;;;5075808;28;20765;-54
2022/07/08 00:21:34;;;;;;;7.28;3.95;;;17.80;99.90;;;;;;5094103;28;20048;-53
2022/07/08 00:24:00;;;;;;;5.82;3.83;;;17.80;99.90;;;;;;5093932;28;20136;-53
2022/07/08 00:26:26;;;;;;;5.82;3.97;;;17.80;99.90;;;;;;5094227;28;20052;-53
2022/07/08 00:28:52;;;;;;;5.25;3.95;;;17.70;99.90;;;;;;5094018;28;20401;-53
2022/07/08 00:31:18;;;;;;;7.43;4.15;;;17.70;99.90;;;;;;5094209;28;20069;-54
2022/07/08 00:33:43;;;;;;;6.70;4.22;;;17.70;99.90;;;;;;5093997;28;20039;-53
2022/07/08 00:36:09;;;;;;;5.47;4.40;;;17.70;99.90;;;;;;5093890;28;20029;-53
2022/07/08 00:38:35;;;;;;;7.22;4.53;;;17.60;99.90;;;;;;5094137;28;20043;-53
2022/07/08 00:41:01;;;;;;;5.38;4.47;;;17.60;99.90;;;;;;5094020;28;20042;-53
2022/07/08 00:43:34;;;;;;;5.25;4.05;;;17.50;99.90;;;;;;5094402;28;20030;-53
2022/07/08 00:46:00;;;;;;;7.40;4.80;;;17.50;99.90;;;;;;5094070;28;20032;-53
2022/07/08 00:48:26;;;;;;;5.55;4.22;;;17.50;99.90;;;;;;5093646;28;20099;-53
2022/07/08 00:50:52;;;;;;;5.95;4.30;;;17.40;99.90;;;;;;5094465;28;20504;-53
2022/07/08 00:53:18;;;;;;;7.20;4.70;;;17.50;99.90;;;;;;5097752;28;20481;-53
2022/07/08 00:55:45;;;;;;;7.32;4.25;;;17.50;99.90;;;;;;5097787;28;20024;-53
2022/07/08 00:58:12;;;;;;;11.38;5.53;;;17.50;99.90;;;;;;5097598;28;20034;-53
2022/07/08 01:00:38;;;;;;;6.13;4.43;;;17.50;99.90;;;;;;5097565;28;20386;-53
2022/07/08 01:03:04;;;;;;;6.85;4.85;;;17.60;99.90;;;;;;5097582;28;20103;-53
2022/07/08 01:05:30;;;;;;;5.95;4.43;;;17.50;99.90;;;;;;5097554;28;20100;-53
2022/07/08 01:07:56;;;;;;;5.90;4.35;;;17.50;99.90;;;;;;5097574;28;20036;-53
2022/07/08 01:10:22;;;;;;;6.40;4.90;;;17.50;99.90;;;;;;5097340;28;20045;-53
2022/07/08 01:12:48;;;;;;;5.78;4.78;;;17.40;99.90;;;;;;5097467;28;20413;-53
2022/07/08 01:15:14;;;;;;;11.32;6.53;;;17.30;99.90;;;;;;5097517;28;20028;-53
2022/07/08 01:17:42;;;;;;;14.00;7.15;;;17.30;99.90;;;;;;5097005;28;20475;-53
2022/07/08 01:20:09;;;;;;;12.88;7.28;;;17.30;99.90;;;;;;5097229;28;20028;-53
2022/07/08 01:22:35;;;;;;;17.05;8.82;;;17.40;99.90;;;;;;5096867;28;20485;-53
2022/07/08 01:25:01;;;;;;;12.90;7.90;;;17.30;99.90;;;;;;5096912;28;20104;-53
2022/07/08 01:27:27;;;;;;;11.68;8.18;;;17.30;99.90;;;;;;5097177;28;20079;-53
2022/07/08 01:29:53;;;;;;;12.00;8.18;;;17.30;99.90;;;;;;5097135;28;20035;-53
2022/07/08 01:32:19;;;;;;;10.43;7.60;;;17.30;99.90;;;;;;5096865;28;20024;-53
2022/07/08 01:34:45;;;;;;;9.68;7.70;;;17.40;99.90;;;;;;5096931;28;20092;-53
2022/07/08 01:37:11;;;;;;;12.57;8.40;;;17.30;99.90;;;;;;5096881;28;20020;-53
2022/07/08 01:39:37;;;;;;;10.57;8.50;;;17.30;99.90;;;;;;5097098;28;20020;-53
2022/07/08 01:42:03;;;;;;;11.68;7.97;;;17.30;99.90;;;;;;5096865;28;20020;-53
2022/07/08 01:44:29;;;;;;;8.75;7.82;;;17.30;99.90;;;;;;5096767;28;20028;-53
2022/07/08 01:46:55;;;;;;;10.50;7.20;;;17.30;99.90;;;;;;5096816;28;20470;-53
2022/07/08 01:49:20;;;;;;;9.35;7.75;;;17.20;99.90;;;;;;5096857;28;20470;-53
2022/07/08 01:51:47;;;;;;;9.05;6.63;;;17.40;99.90;;;;;;5096522;28;20039;-54
2022/07/08 01:54:12;;;;;;;9.30;6.65;;;17.30;99.90;;;;;;5096513;28;20032;-53
2022/07/08 01:56:41;;;;;;;7.60;6.80;;;17.30;99.90;;;;;;5096699;28;20027;-53
2022/07/08 01:59:09;;;;;;;9.25;6.68;;;17.30;99.90;;;;;;5096310;28;20059;-54
2022/07/08 02:01:34;;;;;;;8.77;6.50;;;17.30;99.90;;;;;;5096211;28;20023;-53
2022/07/08 02:04:01;;;;;;;8.35;7.38;;;17.30;99.90;;;;;;5096414;28;20039;-53
2022/07/08 02:06:28;;;;;;;9.23;7.18;;;17.20;99.90;;;;;;5096288;28;20016;-53
2022/07/08 02:08:54;;;;;;;8.52;6.90;;;17.20;99.90;;;;;;5096160;28;20494;-53
2022/07/08 02:14:04;;;;;;;7.68;6.18;;;17.30;99.90;;;;;;5096133;28;20595;-53
2022/07/08 02:16:30;;;;;;;8.18;6.13;;;17.30;99.90;;;;;;5096281;28;20173;-53
2022/07/08 02:18:56;;;;;;;8.77;6.07;;;17.30;99.90;;;;;;5095915;28;20051;-53
2022/07/08 02:21:22;;;;;;;8.02;6.40;;;17.30;99.90;;;;;;5095832;28;20023;-53
2022/07/08 02:23:48;;;;;;;7.38;6.13;;;17.30;99.90;;;;;;5096084;28;20028;-53
2022/07/08 02:26:14;;;;;;;7.18;6.38;;;17.30;99.90;;;;;;5077589;28;20032;-53
2022/07/08 02:28:40;;;;;;;7.30;6.30;;;17.20;99.90;;;;;;5095787;28;20123;-53
2022/07/08 02:31:06;;;;;;;9.88;7.05;;;17.20;99.90;;;;;;5095899;28;20024;-54
2022/07/08 02:33:32;;;;;;;6.40;5.80;;;17.30;99.90;;;;;;5095796;28;20035;-54
2022/07/08 02:35:58;;;;;;;8.60;6.68;;;17.20;99.90;;;;;;5095609;28;20028;-53
2022/07/08 02:38:25;;;;;;;7.07;5.35;;;17.20;99.90;;;;;;5094489;28;20557;-54
2022/07/08 02:40:51;;;;;;;7.57;6.25;;;17.10;99.90;;;;;;5095555;28;20458;-54
2022/07/08 02:43:17;;;;;;;7.20;6.50;;;17.10;99.90;;;;;;5095544;28;20039;-54
2022/07/08 02:45:43;;;;;;;7.72;6.38;;;17.10;99.90;;;;;;5095633;28;20039;-53
2022/07/08 02:48:09;;;;;;;8.13;6.35;;;17.00;99.90;;;;;;5095421;28;20024;-54
2022/07/08 02:50:35;;;;;;;7.68;6.90;;;17.00;99.90;;;;;;5095388;28;20533;-53
2022/07/08 02:53:00;;;;;;;7.80;6.47;;;17.20;99.90;;;;;;5095512;28;20479;-53
2022/07/08 02:55:26;;;;;;;9.88;6.95;;;17.10;99.90;;;;;;5095346;28;20031;-54
2022/07/08 02:57:52;;;;;;;7.72;6.22;;;17.10;99.90;;;;;;5095257;28;20087;-53
2022/07/08 03:00:18;;;;;;;12.10;8.25;;;17.10;99.90;;;;;;5095296;28;20016;-53
2022/07/08 03:02:44;;;;;;;7.38;6.22;;;17.10;99.90;;;;;;5095473;28;20343;-54
2022/07/08 03:05:10;;;;;;;12.68;6.45;;;17.00;99.90;;;;;;5095149;28;20478;-54
2022/07/08 03:07:36;;;;;;;6.85;5.95;;;17.10;99.90;;;;;;5095310;28;20017;-53
2022/07/08 03:10:02;;;;;;;6.43;5.82;;;17.10;99.90;;;;;;5094832;28;20488;-54
2022/07/08 03:12:28;;;;;;;7.68;6.00;;;17.10;99.90;;;;;;5095427;28;20055;-54
2022/07/08 03:14:54;;;;;;;6.80;4.90;;;17.00;99.90;;;;;;5094697;28;20521;-54
2022/07/08 03:17:20;;;;;;;5.80;5.25;;;17.10;99.90;;;;;;5094868;28;20550;-53
2022/07/08 03:19:45;;;;;;;5.88;5.00;;;17.10;99.90;;;;;;5095001;28;20159;-54
2022/07/08 03:22:11;;;;;;;6.82;5.63;;;17.20;99.90;;;;;;5076955;28;20032;-53
2022/07/08 03:24:37;;;;;;;6.25;5.00;;;17.20;99.90;;;;;;5094796;28;20067;-53
2022/07/08 03:27:04;;;;;;;6.90;5.40;;;17.10;99.90;;;;;;5094895;28;20032;-53
2022/07/08 03:29:29;;;;;;;7.28;5.97;;;17.20;99.90;;;;;;5095038;28;20176;-53
2022/07/08 03:31:57;;;;;;;6.25;5.63;;;17.20;99.90;;;;;;5094912;28;20349;-53
2022/07/08 03:34:23;;;;;;;5.63;4.72;;;17.10;99.90;;;;;;5094525;28;20392;-53
2022/07/08 03:36:48;;;;;;;8.48;5.60;;;17.00;99.90;;;;;;5094804;28;20107;-53
2022/07/08 03:39:14;;;;;;;9.05;5.22;;;16.90;99.90;;;;;;5094380;28;20117;-53
2022/07/08 03:41:40;;;;;;;5.32;4.82;;;17.00;99.90;;;;;;5094627;28;20039;-54
2022/07/08 03:44:06;;;;;;;6.28;4.95;;;17.00;99.90;;;;;;5094733;28;20108;-53
2022/07/08 03:46:33;;;;;;;6.07;4.40;;;17.00;99.90;;;;;;5094493;28;20044;-53
2022/07/08 03:48:59;;;;;;;10.13;6.93;;;17.00;99.90;;;;;;5094623;28;20111;-53
2022/07/08 03:51:25;;;;;;;4.57;3.70;;;17.10;99.90;;;;;;5094790;28;20060;-54
2022/07/08 03:53:51;;;;;;;6.03;4.72;;;17.10;99.90;;;;;;5094438;28;20075;-53
2022/07/08 03:56:17;;;;;;;5.07;4.63;;;17.10;99.90;;;;;;5094699;28;20543;-53
2022/07/08 03:58:43;;;;;;;7.53;4.93;;;17.10;99.90;;;;;;5094318;28;20351;-53
2022/07/08 04:01:09;;;;;;;7.03;4.38;;;17.00;99.90;;;;;;5094517;28;20028;-53
2022/07/08 04:03:35;;;;;;;4.18;3.88;;;17.00;99.90;;;;;;5094453;28;20092;-53
2022/07/08 04:06:01;;;;;;;6.65;3.78;;;16.90;99.90;;;;;;5094297;28;20469;-53
2022/07/08 04:08:27;;;;;;;5.20;4.10;;;16.80;99.90;;;;;;5094318;28;20104;-53
2022/07/08 04:10:54;;;;;;;5.53;3.67;;;16.90;99.90;;;;;;5076350;28;20032;-53
2022/07/08 04:13:19;;;;;;;4.53;3.60;;;16.80;99.90;;;;;;5094409;28;20111;-54
2022/07/08 04:15:45;;;;;;;4.90;3.70;;;16.80;99.90;;;;;;5094416;28;20508;-53
2022/07/08 04:18:11;;;;;;;6.25;4.47;;;16.80;99.90;;;;;;5094022;28;20132;-54
2022/07/08 04:20:37;;;;;;;7.78;4.60;;;16.80;99.90;;;;;;5094330;28;20110;-53
2022/07/08 04:23:03;;;;;;;11.50;5.95;;;16.80;99.90;;;;;;5093961;28;20030;-53
2022/07/08 04:25:29;;;;;;;4.30;3.45;;;16.80;99.90;;;;;;5094369;28;20448;-54
2022/07/08 04:27:55;;;;;;;8.95;4.72;;;16.80;99.90;;;;;;5098064;28;20032;-53
2022/07/08 04:30:21;;;;;;;5.93;4.07;;;16.80;99.90;;;;;;5098105;28;20119;-54
2022/07/08 04:32:46;;;;;;;8.00;4.25;;;16.80;99.90;;;;;;5098272;28;20031;-54
2022/07/08 04:35:12;;;;;;;5.40;4.25;;;16.80;99.90;;;;;;5111759;28;20389;-53
2022/07/08 04:37:38;;;;;;;7.50;4.63;;;16.80;99.90;;;;;;5118124;28;20075;-54
2022/07/08 04:40:05;;;;;;;6.47;3.88;;;16.70;99.90;;;;;;5118482;28;20107;-53
2022/07/08 04:42:31;;;;;;;8.63;4.32;;;16.70;99.90;;;;;;5118445;28;20036;-53
2022/07/08 04:44:56;;;;;;;10.02;5.85;;;16.80;99.90;;;;;;5118198;28;20019;-54
2022/07/08 04:47:22;;;;;;;7.50;4.68;;;16.80;99.90;;;;;;5118188;28;20457;-53
2022/07/08 04:49:48;;;;;;;11.80;5.10;;;16.90;99.90;;;;;;5118297;28;20034;-53
2022/07/08 04:52:14;;;;;;;4.80;3.83;;;16.90;99.90;;;;;;5118057;28;20023;-54
2022/07/08 04:54:40;;;;;;;4.68;3.72;;;16.90;99.90;;;;;;5118396;28;20089;-53
2022/07/08 04:57:07;;;;;;;11.43;5.30;;;16.80;99.90;;;;;;5118021;28;20031;-54
2022/07/08 04:59:33;;;;;;;9.80;5.25;;;16.90;99.90;;;;;;5117874;28;20024;-53
2022/07/08 05:02:00;;;;;;;5.85;4.53;;;16.90;99.90;;;;;;5118233;28;20035;-54
2022/07/08 05:04:26;;;;;;;9.85;5.18;;;16.90;99.90;;;;;;5117949;28;20097;-54
2022/07/08 05:06:52;;;;;;;9.10;5.10;;;17.00;99.90;;;;;;5099074;28;20619;-53
2022/07/08 05:09:18;;;;;;;9.57;5.40;;;17.00;99.90;;;;;;5097477;28;20119;-54
2022/07/08 05:11:44;;;;;;;10.00;4.85;;;17.00;99.90;;;;;;5097232;28;20501;-54
2022/07/08 05:14:13;;;;;;;8.07;3.97;;;17.10;99.90;;;;;;5097390;28;20040;-53
2022/07/08 05:16:43;;;;;;;6.95;4.03;;;17.10;99.90;;;;;;5097048;28;20077;-54
2022/07/08 05:19:09;;;;;;;5.73;4.60;;;17.10;99.90;;;;;;5077423;28;20175;-53
2022/07/08 05:21:39;;;;;;;6.70;4.70;;;17.00;99.90;;;;;;5077083;28;20261;-53
2022/07/08 05:24:06;;;;;;;5.53;4.43;;;17.00;99.90;;;;;;5076824;28;20035;-53
2022/07/08 05:26:32;;;;;;;9.32;4.40;;;17.10;99.90;;;;;;5094764;28;20397;-53
2022/07/08 05:28:58;;;;;;;6.65;4.65;;;17.10;99.90;;;;;;5096818;28;20020;-53
2022/07/08 05:31:24;;;;;;;8.15;4.45;;;17.00;99.90;;;;;;5096361;28;20039;-53
2022/07/08 05:33:50;;;;;;;5.43;4.25;;;17.10;99.90;;;;;;5096659;28;20348;-53
2022/07/08 05:36:16;;;;;;;9.65;4.55;;;17.10;99.90;;;;;;5096954;28;20028;-53
2022/07/08 05:38:42;;;;;;;5.28;4.30;;;17.10;99.90;;;;;;5096327;28;20024;-53
2022/07/08 05:41:08;;;;;;;6.38;4.90;;;17.10;99.90;;;;;;5096307;28;20032;-53
2022/07/08 05:43:34;;;;;;;5.55;4.22;;;17.00;99.90;;;;;;5078708;28;20038;-53
2022/07/08 05:46:00;;;;;;;5.28;4.35;;;17.00;99.90;;;;;;5096285;28;20115;-53
2022/07/08 05:48:28;;;;;;;6.53;4.40;;;17.10;99.90;;;;;;5096156;28;20035;-53
2022/07/08 05:50:54;;;;;;;8.48;4.65;;;17.00;99.90;;;;;;5096511;28;20031;-53
2022/07/08 05:53:23;;;;;;;5.28;4.68;;;17.00;99.90;;;;;;5095994;28;20028;-53
2022/07/08 05:55:49;;;;;;;7.47;4.28;;;17.00;99.90;;;;;;5096308;28;20020;-53
2022/07/08 05:58:15;;;;;;;4.28;3.83;;;17.00;99.90;;;;;;5095290;28;20035;-53
2022/07/08 06:00:41;;;;;;;5.15;3.65;;;17.10;99.90;;;;;;5096313;28;20024;-53
2022/07/08 06:03:07;;;;;;;6.28;4.00;;;17.10;99.90;;;;;;5096223;28;20024;-53
2022/07/08 06:05:33;;;;;;;8.48;4.93;;;17.00;99.90;;;;;;5096229;28;20016;-54
2022/07/08 06:07:59;;;;;;;4.65;4.25;;;17.00;99.90;;;;;;5096253;28;20027;-54
2022/07/08 06:10:28;;;;;;;5.32;4.45;;;17.10;99.90;;;;;;5095927;28;20028;-53
2022/07/08 06:12:54;;;;;;;4.78;4.25;;;17.10;99.90;;;;;;5096236;28;20059;-53
2022/07/08 06:15:20;;;;;;;5.90;3.63;;;16.90;99.90;;;;;;5078033;28;20028;-54
2022/07/08 06:17:47;;;;;;;8.68;5.07;;;16.90;99.90;;;;;;5095552;28;20048;-54
2022/07/08 06:20:14;;;;;;;5.22;4.60;;;16.80;99.90;;;;;;5095606;28;20453;-53
2022/07/08 06:22:42;;;;;;;8.82;4.82;;;16.80;99.90;;;;;;5078209;28;20036;-53
2022/07/08 06:25:08;;;;;;;5.22;3.67;;;16.70;99.90;;;;;;5096352;28;20469;-54
2022/07/08 06:27:35;;;;;;;4.88;3.85;;;16.70;99.90;;;;;;5091198;28;20110;-53
2022/07/08 06:30:02;;;;;;;4.20;3.80;;;16.70;99.90;;;;;;5094614;28;20032;-53
2022/07/08 06:32:28;;;;;;;6.25;3.47;;;16.70;99.90;;;;;;5092361;28;20374;-53
2022/07/08 06:34:54;;;;;;;3.70;3.40;;;16.80;99.90;;;;;;5089049;28;20032;-53
2022/07/08 06:37:20;;;;;;;4.63;3.45;;;16.80;99.90;;;;;;5095372;28;20024;-54
2022/07/08 06:39:46;;;;;;;4.20;3.80;;;16.80;99.90;;;;;;5095534;28;20466;-53
2022/07/08 06:42:12;;;;;;;5.70;4.00;;;16.90;99.90;;;;;;5086466;28;20039;-53
2022/07/08 06:44:41;;;;;;;4.27;3.83;;;16.80;99.90;;;;;;5080769;28;20416;-53
2022/07/08 06:47:10;;;;;;;4.88;3.80;;;16.80;99.90;;;;;;5089009;28;20032;-53
2022/07/08 06:49:36;;;;;;;8.48;3.40;;;16.80;99.90;;;;;;5075056;28;20335;-53
2022/07/08 06:52:02;;;;;;;6.45;4.18;;;16.90;99.90;;;;;;5090054;28;20024;-54
2022/07/08 06:54:37;;;;;;;4.90;3.95;;;16.80;99.90;;;;;;5075861;28;20063;-54
2022/07/08 06:57:07;;;;;;;7.03;3.88;;;16.80;99.90;;;;;;5112145;28;20055;-54
2022/07/08 06:59:34;;;;;;;5.15;3.80;;;16.70;99.90;;;;;;5089849;28;20032;-54
2022/07/08 07:02:00;;;;;;;10.57;5.32;;;16.90;99.90;;;;;;5087807;28;20039;-53
2022/07/08 07:04:29;;;;;;;9.73;4.38;;;17.00;99.90;;;;;;5076480;28;20107;-54
2022/07/08 07:06:55;;;;;;;8.15;4.45;;;17.00;99.90;;;;;;5089618;28;20047;-54
2022/07/08 07:09:22;;;;;;;7.72;5.10;;;16.90;99.90;;;;;;5087402;28;20068;-54
2022/07/08 07:11:48;;;;;;;9.90;4.90;;;17.00;99.90;;;;;;5090413;28;20067;-54
2022/07/08 07:14:14;;;;;;;5.60;4.13;;;16.90;99.90;;;;;;5092641;28;20031;-54
2022/07/08 07:16:40;;;;;;;7.18;4.28;;;16.90;99.90;;;;;;5085620;28;20032;-54
2022/07/08 07:19:06;;;;;;;5.88;4.57;;;16.90;99.90;;;;;;5084338;28;20048;-54
2022/07/08 07:21:32;;;;;;;13.90;5.40;;;16.90;99.90;;;;;;5090940;28;20058;-54
2022/07/08 07:23:58;;;;;;;5.35;4.20;;;16.90;99.90;;;;;;5094457;28;20024;-54
2022/07/08 07:26:24;;;;;;;9.75;5.35;;;16.90;99.90;;;;;;5094442;28;20027;-54
2022/07/08 07:28:50;;;;;;;12.35;5.80;;;17.00;99.90;;;;;;5079041;28;20081;-54
2022/07/08 07:31:15;;;;;;;7.63;5.28;;;17.00;99.90;;;;;;5084453;28;20047;-54
2022/07/08 07:33:41;;;;;;;8.82;5.55;;;16.90;99.90;;;;;;5077069;28;20028;-54
2022/07/08 07:36:07;;;;;;;8.80;6.03;;;17.00;99.90;;;;;;5087085;28;20036;-54
2022/07/08 07:38:34;;;;;;;10.98;5.53;;;16.90;99.90;;;;;;5089645;28;20058;-54
2022/07/08 07:41:00;;;;;;;7.38;5.20;;;16.80;99.90;;;;;;5073995;28;20056;-54
2022/07/08 07:43:26;;;;;;;20.90;10.45;;;16.80;99.90;;;;;;5074172;28;20493;-54
2022/07/08 07:45:52;;;;;;;6.90;5.53;;;16.90;99.90;;;;;;5074416;28;20021;-54
2022/07/08 07:48:18;;;;;;;10.88;6.15;;;16.80;99.90;;;;;;5081465;28;20075;-54
2022/07/08 07:50:44;;;;;;;7.97;5.80;;;17.00;99.90;;;;;;5074212;28;20028;-54
2022/07/08 07:53:10;;;;;;;7.70;6.28;;;16.90;99.90;;;;;;5073814;28;20033;-54
2022/07/08 07:55:36;;;;;;;8.77;7.03;;;17.00;99.90;;;;;;5073678;28;20120;-54
2022/07/08 07:58:02;;;;;;;11.30;6.47;;;16.90;99.90;;;;;;5074064;28;20040;-53
2022/07/08 08:00:28;;;;;;;10.75;8.27;;;16.90;99.90;;;;;;5080644;28;20482;-54
2022/07/08 08:02:54;;;;;;;14.68;7.03;;;16.90;99.90;;;;;;5090421;28;20017;-53
2022/07/08 08:05:20;;;;;;;7.45;5.43;;;16.90;99.90;;;;;;5073400;28;20024;-53
2022/07/08 08:07:46;;;;;;;7.28;5.78;;;17.00;99.90;;;;;;5101642;28;20032;-53
2022/07/08 08:10:13;;;;;;;8.88;5.97;;;17.00;99.90;;;;;;5101479;28;20043;-53
2022/07/08 08:12:40;;;;;;;8.95;6.05;;;16.90;99.90;;;;;;5101002;28;20020;-53
2022/07/08 08:15:06;;;;;;;9.68;5.43;;;16.90;99.90;;;;;;5106000;28;20039;-53
2022/07/08 08:17:42;;;;;;;7.75;5.18;;;17.00;99.90;;;;;;5101065;28;20040;-53
2022/07/08 08:20:10;;;;;;;8.05;4.95;;;17.00;99.90;;;;;;5098706;28;20374;-53
2022/07/08 08:22:36;;;;;;;9.32;6.10;;;17.00;99.90;;;;;;5095856;28;20034;-53
2022/07/08 08:25:03;;;;;;;6.78;5.07;;;17.00;99.90;;;;;;5104468;28;20103;-53
2022/07/08 08:27:30;;;;;;;3.97;3.58;;;17.10;99.90;;;;;;5108571;28;20024;-53
2022/07/08 08:29:56;;;;;;;13.98;7.32;;;17.00;99.90;;;;;;5101672;28;20039;-53
2022/07/08 08:32:22;;;;;;;6.10;4.00;;;17.00;99.90;;;;;;5100380;28;20024;-53
2022/07/08 08:34:48;;;;;;;5.20;4.07;;;17.00;99.90;;;;;;5100635;28;20035;-53
2022/07/08 08:37:14;;;;;;;4.00;3.38;;;17.00;99.90;;;;;;5100227;28;20024;-53
2022/07/08 08:39:40;;;;;;;6.47;3.55;;;17.00;99.90;;;;;;5107199;28;20023;-53
2022/07/08 08:42:07;;;;;;;18.15;4.05;;;17.10;99.90;;;;;;5114345;28;20032;-54
2022/07/08 08:44:33;;;;;;;6.55;3.63;;;17.20;99.90;;;;;;5101891;28;20442;-54
2022/07/08 08:47:03;;;;;;;5.18;3.17;;;17.30;99.90;;;;;;5111477;28;20118;-54
2022/07/08 08:49:34;;;;;;;4.10;2.85;;;17.30;99.90;;;;;;5120805;28;20031;-54
2022/07/08 08:52:01;;;;;;;;;;;17.30;99.90;;;;;;5107761;28;20044;-54
2022/07/08 08:54:32;;;;;;;5.22;3.05;;;17.30;99.90;;;;;;5121021;28;20288;-54
2022/07/08 08:56:58;;;;;;;2.53;2.30;;;17.20;99.90;;;;;;5120710;28;20031;-54
2022/07/08 08:59:25;;;;;;;5.05;2.65;;;17.20;99.90;;;;;;5101764;28;20389;-54
2022/07/08 09:01:52;;;;;;;4.10;2.97;;;17.20;99.90;;;;;;5098933;28;20020;-54
2022/07/08 09:04:19;;;;;;;12.35;7.38;;;17.20;99.90;;;;;;5100164;28;20393;-54
2022/07/08 09:06:45;;;;;;;9.35;7.75;;;17.30;99.90;;;;;;5100760;28;20027;-54
2022/07/08 09:09:11;;;;;;;12.18;10.93;;;17.30;99.90;;;;;;5099743;28;20128;-54
2022/07/08 09:11:39;;;;;;;13.57;11.07;;;17.30;99.90;;;;;;5098509;28;20031;-54
2022/07/08 09:14:18;;;;;;;12.60;9.50;;;17.30;99.90;;;;;;5096722;28;20073;-54
2022/07/08 09:17:21;;;;;;;6.63;5.85;;;17.40;99.90;;;;;;5094310;28;20024;-54
2022/07/08 09:19:50;;;;;;;8.18;5.75;;;17.30;99.90;;;;;;5092936;28;20119;-54
2022/07/08 09:22:17;;;;;;;6.15;3.70;;;17.40;99.90;;;;;;5095357;28;20081;-54
2022/07/08 09:24:44;;;;;;;6.15;3.80;;;17.40;99.90;;;;;;5091742;28;20024;-54
2022/07/08 09:27:11;;;;;;;6.38;3.00;;;17.50;99.90;;;;;;5089805;28;20396;-54
2022/07/08 09:29:56;;;;;;;5.28;3.65;;;17.50;99.90;;;;;;5086262;28;20051;-54
2022/07/08 09:32:21;;;;;;;4.43;3.67;;;17.60;99.90;;;;;;5087633;28;20045;-54
2022/07/08 09:34:47;;;;;;;3.63;3.13;;;17.60;99.90;;;;;;5087344;28;20069;-54
2022/07/08 09:37:15;;;;;;;4.05;3.50;;;17.70;99.90;;;;;;5085035;28;20052;-54
2022/07/08 09:39:43;;;;;;;3.97;3.35;;;17.70;99.90;;;;;;5075787;28;20089;-54
2022/07/08 09:42:10;;;;;;;3.55;3.25;;;17.70;99.90;;;;;;5088545;28;20035;-54
2022/07/08 09:44:37;;;;;;;3.65;3.30;;;17.70;99.90;;;;;;5077049;28;20056;-54
2022/07/08 09:47:14;;;;;;;4.30;3.38;;;17.80;99.90;;;;;;5079441;28;20051;-54
2022/07/08 09:49:42;;;;;;;7.07;3.60;;;17.90;99.90;;;;;;5087523;28;20024;-54
2022/07/08 09:52:10;;;;;;;5.20;3.20;;;17.80;99.90;;;;;;5083341;28;20047;-54
2022/07/08 09:54:36;;;;;;;3.15;2.85;;;17.70;99.90;;;;;;5082316;28;20039;-54
2022/07/08 09:57:07;;;;;;;6.35;3.50;;;17.90;99.90;;;;;;5083820;28;20032;-54
2022/07/08 09:59:35;;;;;;;5.35;3.88;;;17.80;99.90;;;;;;5085775;28;20032;-54
2022/07/08 10:02:01;;;;;;;6.30;3.45;;;17.80;99.90;;;;;;5083902;28;20036;-54
2022/07/08 10:04:28;;;;;;;6.35;3.95;;;18.00;99.90;;;;;;5087519;28;20030;-54
2022/07/08 10:06:55;;;;;;;8.90;4.32;;;18.10;99.90;;;;;;5086973;28;20392;-54
2022/07/08 10:09:23;;;;;;;5.82;4.72;;;18.10;99.90;;;;;;5078990;28;20037;-54
2022/07/08 10:11:49;;;;;;;5.93;3.90;;;18.10;99.90;;;;;;5075419;28;20037;-54
2022/07/08 10:14:17;;;;;;;6.43;4.20;;;18.10;99.90;;;;;;5075443;28;20021;-54
2022/07/08 10:16:47;;;;;;;5.28;4.20;;;18.00;99.90;;;;;;5092027;28;20138;-54
2022/07/08 10:19:15;;;;;;;;;;;18.20;99.90;;;;;;5088385;28;20067;-54
2022/07/08 10:21:46;;;;;;;4.70;3.35;;;18.20;99.90;;;;;;5084416;28;19993;-54
2022/07/08 10:24:19;;;;;;;7.32;4.15;;;18.20;99.90;;;;;;5089696;28;20099;-54
2022/07/08 10:26:45;;;;;;;9.25;7.13;;;18.20;99.90;;;;;;5093443;28;20078;-54
2022/07/08 10:29:11;;;;;;;5.60;4.68;;;18.20;99.90;;;;;;5092106;28;20118;-54
2022/07/08 10:31:46;;;;;;;8.55;4.25;;;18.40;99.90;;;;;;5094605;28;20024;-54
2022/07/08 10:34:13;;;;;;;7.40;4.40;;;18.50;99.90;;;;;;5095309;28;20040;-54
2022/07/08 10:36:53;;;;;;;6.95;4.85;;;18.70;99.90;;;;;;5091239;28;20028;-54
2022/07/08 10:39:40;;;;;;;4.53;3.40;;;18.70;99.90;;;;;;5075529;28;20043;-54
2022/07/08 10:42:07;;;;;;;8.80;5.00;;;18.70;99.90;;;;;;5094548;28;20023;-54
2022/07/08 10:44:45;;;;;;;7.03;3.92;;;18.60;99.90;;;;;;5094537;28;20426;-54
2022/07/08 10:47:23;;;;;;;12.90;4.43;;;18.80;99.90;;;;;;5092019;28;20024;-54
2022/07/08 10:49:50;;;;;;;10.48;4.80;;;18.80;99.90;;;;;;5085044;28;20036;-54
2022/07/08 10:52:21;;;;;;;7.25;3.88;;;18.80;99.90;;;;;;5083923;28;20024;-54
2022/07/08 10:54:47;;;;;;;6.53;4.10;;;18.90;99.90;;;;;;5082949;28;20122;-54
2022/07/08 10:57:26;;;;;;;10.50;4.32;;;18.90;99.90;;;;;;5097427;28;20465;-54
2022/07/08 11:00:10;;;;;;;9.65;4.10;;;19.00;99.90;;;;;;5094596;28;20039;-54
2022/07/08 11:02:45;;;;;;;15.68;5.70;;;19.20;99.90;;;;;;5090387;28;20462;-54
2022/07/08 11:05:35;;;;;;;9.38;4.80;;;19.30;99.90;;;;;;5094984;28;20035;-54
2022/07/08 11:08:28;;;;;;;5.40;3.85;;;19.50;99.90;;;;;;5095568;28;20089;-54
2022/07/08 11:10:57;;;;;;;8.63;3.85;;;19.70;99.90;;;;;;5092618;28;20046;-54
2022/07/08 11:13:24;;;;;;;10.95;4.45;;;19.60;99.90;;;;;;5095390;28;20055;-54
2022/07/08 11:15:50;;;;;;;10.73;4.65;;;19.70;99.90;;;;;;5095537;28;20115;-54
2022/07/08 11:18:24;;;;;;;11.05;3.90;;;19.70;99.90;;;;;;5095299;28;20032;-54
2022/07/08 11:21:00;;;;;;;9.70;3.88;;;19.70;99.90;;;;;;5094878;28;20131;-54
2022/07/08 11:23:28;;;;;;;7.32;3.45;;;19.80;99.90;;;;;;5094613;28;20034;-54
2022/07/08 11:25:57;;;;;;;11.82;5.22;;;19.70;99.90;;;;;;5094174;28;20103;-54
2022/07/08 11:28:24;;;;;;;5.05;3.47;;;19.70;99.90;;;;;;5094357;28;20033;-54
2022/07/08 11:30:50;;;;;;;7.93;3.17;;;19.70;99.90;;;;;;5094766;28;20026;-54
2022/07/08 11:33:16;;;;;;;8.90;3.58;;;19.70;99.90;;;;;;5094608;28;20058;-54
2022/07/08 11:35:42;;;;;;;5.30;2.70;;;19.80;99.90;;;;;;5093764;28;20461;-54
2022/07/08 11:38:08;;;;;;;8.70;3.40;;;19.90;99.90;;;;;;5094367;28;20473;-54
2022/07/08 11:40:43;;;;;;;6.55;3.20;;;20.00;99.90;;;;;;5094176;28;20048;-54
2022/07/08 11:43:21;;;;;;;4.10;3.25;;;20.00;99.90;;;;;;5093866;28;20024;-54
2022/07/08 11:45:47;;;;;;;7.03;3.38;;;20.00;99.90;;;;;;5094730;28;20024;-54
2022/07/08 11:48:12;;;;;;;10.55;4.28;;;20.00;99.90;;;;;;5094511;28;20039;-54
2022/07/08 11:50:48;;;;;;;6.13;3.67;;;19.90;99.90;;;;;;5094268;28;20028;-54
2022/07/08 11:53:25;;;;;;;9.55;3.70;;;19.90;99.90;;;;;;5076165;28;20032;-54
2022/07/08 11:55:51;;;;;;;10.63;4.00;;;19.80;99.90;;;;;;5094393;28;20089;-54
2022/07/08 11:58:24;;;;;;;7.47;3.38;;;19.90;99.90;;;;;;5094155;28;20121;-54
2022/07/08 12:00:53;;;;;;;10.02;4.32;;;19.80;99.90;;;;;;5094200;28;20023;-54
2022/07/08 12:03:19;;;;;;;9.63;3.22;;;19.90;99.90;;;;;;5088054;28;20070;-54
2022/07/08 12:05:48;;;;;;;14.50;4.40;;;19.80;99.90;;;;;;5089633;28;20055;-54
2022/07/08 12:08:14;;;;;;;5.10;3.30;;;19.90;99.90;;;;;;5094305;28;20473;-54
2022/07/08 12:10:40;;;;;;;4.75;3.47;;;20.00;99.90;;;;;;5094031;28;20054;-54
2022/07/08 12:13:06;;;;;;;8.60;2.90;;;20.20;99.90;;;;;;5094136;28;20032;-54
2022/07/08 12:15:36;;;;;;;5.03;2.55;;;20.20;99.90;;;;;;5093861;28;20032;-54
2022/07/08 12:18:04;;;;;;;8.48;3.70;;;20.30;99.90;;;;;;5093640;28;20478;-54
2022/07/08 12:20:34;;;;;;;5.18;2.72;;;20.40;99.90;;;;;;5094084;28;20027;-54
2022/07/08 12:23:01;;;;;;;3.50;2.50;;;20.30;99.90;;;;;;5094111;28;20070;-54
2022/07/08 12:25:27;;;;;;;8.05;3.03;;;20.30;99.90;;;;;;5093779;28;20028;-54
2022/07/08 12:28:03;;;;;;;3.70;2.67;;;20.20;99.90;;;;;;5093707;28;20340;-54
2022/07/08 12:30:30;;;;;;;7.93;3.42;;;20.30;99.90;;;;;;5082904;28;20064;-54
2022/07/08 12:33:01;;;;;;;6.38;2.72;;;20.30;99.90;;;;;;5087924;28;20102;-54
2022/07/08 12:35:31;;;;;;;7.07;3.42;;;20.40;99.90;;;;;;5110745;28;20019;-54
2022/07/08 12:38:11;;;;;;;5.47;2.60;;;20.30;99.90;;;;;;5113572;28;20069;-54
2022/07/08 12:40:45;;;;;;;7.05;3.50;;;20.30;99.90;;;;;;5091081;28;20019;-54
2022/07/08 12:43:13;;;;;;;9.57;3.40;;;20.30;99.90;;;;;;5105872;28;20401;-54
2022/07/08 12:45:39;;;;;;;4.68;3.08;;;20.50;99.90;;;;;;5103867;28;20020;-54
2022/07/08 12:48:06;;;;;;;7.18;3.08;;;20.70;99.90;;;;;;5101962;28;20441;-54
2022/07/08 12:50:33;;;;;;;10.30;4.18;;;20.90;99.90;;;;;;5107418;28;20539;-54